Time;durP1;ratioP1;P1;durP2;ratioP2;P2;SDS_P1;SDS_P2;PMS_P1;PMS_P2;Temp;Humidity;BMP_temperature;BMP_pressure;BME280_temperature;BME280_humidity;BME280_pressure;Samples;Min_cycle;Max_cycle;Signal;HPM_P1;HPM_P2
2022/11/28 00:02:12;;;;;;;;;0.00;0.00;;;;;;;;5096427;27;28524;-96
2022/11/28 00:04:38;;;;;;;;;0.00;0.00;;;;;;;;5115937;27;28521;-96
2022/11/28 00:07:03;;;;;;;;;0.00;0.00;;;;;;;;5116244;27;28618;-96
2022/11/28 00:09:28;;;;;;;;;0.00;0.00;;;;;;;;5116839;27;30131;-96
2022/11/28 00:11:53;;;;;;;;;0.00;0.00;;;;;;;;5115757;27;27833;-96
2022/11/28 00:14:19;;;;;;;;;0.00;0.00;;;;;;;;5115926;27;27778;-96
2022/11/28 00:16:44;;;;;;;;;0.00;0.00;;;;;;;;5116401;27;28505;-96
2022/11/28 00:19:10;;;;;;;;;0.00;0.00;;;;;;;;5114405;27;30039;-96
2022/11/28 00:21:35;;;;;;;;;0.00;0.00;;;;;;;;5113977;27;28531;-96
2022/11/28 00:24:01;;;;;;;;;0.00;0.00;;;;;;;;5114981;27;28431;-96
2022/11/28 00:26:31;;;;;;;;;0.00;0.00;;;;;;;;5114789;27;28480;-96
2022/11/28 00:28:57;;;;;;;;;0.00;0.00;;;;;;;;5114253;27;30028;-96
2022/11/28 00:31:24;;;;;;;;;0.00;0.00;;;;;;;;5114455;27;28768;-96
2022/11/28 00:33:50;;;;;;;;;0.00;0.00;;;;;;;;5113244;27;28405;-96
2022/11/28 00:36:15;;;;;;;;;0.00;0.00;;;;;;;;5116007;27;28500;-96
2022/11/28 00:38:40;;;;;;;;;0.00;0.00;;;;;;;;5115622;27;29899;-96
2022/11/28 00:41:07;;;;;;;;;0.00;0.00;;;;;;;;5117046;27;28738;-96
2022/11/28 00:43:32;;;;;;;;;0.00;0.00;;;;;;;;5121332;27;27853;-96
2022/11/28 00:45:57;;;;;;;;;0.00;0.00;;;;;;;;5120275;27;28453;-96
2022/11/28 00:48:23;;;;;;;;;0.00;0.00;;;;;;;;5122040;27;29863;-96
2022/11/28 00:50:48;;;;;;;;;0.00;0.00;;;;;;;;5122622;27;28469;-96
2022/11/28 00:53:13;;;;;;;;;0.00;0.00;;;;;;;;5125059;27;27720;-96
2022/11/28 00:55:39;;;;;;;;;0.00;0.00;;;;;;;;5125563;27;28321;-96
2022/11/28 00:58:04;;;;;;;;;0.00;0.00;;;;;;;;5125506;27;31280;-96
2022/11/28 01:00:30;;;;;;;;;0.00;0.00;;;;;;;;5123745;27;28774;-96
2022/11/28 01:02:55;;;;;;;;;0.00;0.00;;;;;;;;5121279;27;27782;-96
2022/11/28 01:05:20;;;;;;;;;0.00;0.00;;;;;;;;5121703;27;28342;-96
2022/11/28 01:07:45;;;;;;;;;0.00;0.00;;;;;;;;5123453;27;30001;-96
2022/11/28 01:10:10;;;;;;;;;0.00;0.00;;;;;;;;5122196;27;28766;-96
2022/11/28 01:12:36;;;;;;;;;0.00;0.00;;;;;;;;5120274;27;27920;-96
2022/11/28 01:15:01;;;;;;;;;0.00;0.00;;;;;;;;5119755;27;28405;-96
2022/11/28 01:17:26;;;;;;;;;0.00;0.00;;;;;;;;5120024;27;31479;-96
2022/11/28 01:19:52;;;;;;;;;0.00;0.00;;;;;;;;5119821;27;28422;-96
2022/11/28 01:22:17;;;;;;;;;0.00;0.00;;;;;;;;5119239;27;28317;-96
2022/11/28 01:24:42;;;;;;;;;0.00;0.00;;;;;;;;5119239;27;28611;-96
2022/11/28 01:27:07;;;;;;;;;0.00;0.00;;;;;;;;5118166;27;31159;-96
2022/11/28 01:29:32;;;;;;;;;0.00;0.00;;;;;;;;5115041;27;28576;-96
2022/11/28 01:31:58;;;;;;;;;0.00;0.00;;;;;;;;5114567;27;28444;-96
2022/11/28 01:34:23;;;;;;;;;0.00;0.00;;;;;;;;5115551;27;28396;-96
2022/11/28 01:36:48;;;;;;;;;0.00;0.00;;;;;;;;5119044;27;30047;-96
2022/11/28 01:39:14;;;;;;;;;0.00;0.00;;;;;;;;5118606;27;28527;-96
2022/11/28 01:41:40;;;;;;;;;0.00;0.00;;;;;;;;5118273;27;28521;-96
2022/11/28 01:44:14;;;;;;;;;0.00;0.00;;;;;;;;5117173;27;28468;-96
2022/11/28 01:46:39;;;;;;;;;0.00;0.00;;;;;;;;5118013;27;30015;-96
2022/11/28 01:49:07;;;;;;;;;0.00;0.00;;;;;;;;5117438;27;29832;-96
2022/11/28 01:51:34;;;;;;;;;0.00;0.00;;;;;;;;5116770;27;27780;-96
2022/11/28 01:54:00;;;;;;;;;0.00;0.00;;;;;;;;5115437;27;28367;-96
2022/11/28 01:56:27;;;;;;;;;0.00;0.00;;;;;;;;5116319;27;29728;-96
2022/11/28 01:59:01;;;;;;;;;0.00;0.00;;;;;;;;5116003;27;28603;-96
2022/11/28 02:01:26;;;;;;;;;0.00;0.00;;;;;;;;5115730;27;28718;-96
2022/11/28 02:03:53;;;;;;;;;0.00;0.00;;;;;;;;5112172;27;28334;-96
2022/11/28 02:06:20;;;;;;;;;0.00;0.00;;;;;;;;5111987;27;29796;-96
2022/11/28 02:08:45;;;;;;;;;0.00;0.00;;;;;;;;5113155;27;28740;-96
2022/11/28 02:11:13;;;;;;;;;0.00;0.00;;;;;;;;5116070;27;28426;-96
2022/11/28 02:13:44;;;;;;;;;0.00;0.00;;;;;;;;5116357;27;28516;-96
2022/11/28 02:16:09;;;;;;;;;0.00;0.00;;;;;;;;5115912;27;31517;-96
2022/11/28 02:18:43;;;;;;;;;0.00;0.00;;;;;;;;5117313;27;28482;-96
2022/11/28 02:21:17;;;;;;;;;0.00;0.00;;;;;;;;5117450;27;28445;-96
2022/11/28 02:23:48;;;;;;;;;0.00;0.00;;;;;;;;5117593;27;27846;-96
2022/11/28 02:26:25;;;;;;;;;0.00;0.00;;;;;;;;5117844;27;30176;-96
2022/11/28 02:29:09;;;;;;;;;0.00;0.00;;;;;;;;5117164;27;28508;-96
2022/11/28 02:31:53;;;;;;;;;0.00;0.00;;;;;;;;5117965;27;27858;-96
2022/11/28 02:34:39;;;;;;;;;0.00;0.00;;;;;;;;5116705;27;28605;-96
2022/11/28 02:37:12;;;;;;;;;0.00;0.00;;;;;;;;5116141;27;31074;-96
2022/11/28 02:39:40;;;;;;;;;0.00;0.00;;;;;;;;5117923;27;28728;-96
2022/11/28 02:42:06;;;;;;;;;0.00;0.00;;;;;;;;5118705;27;28495;-96
2022/11/28 02:44:35;;;;;;;;;0.00;0.00;;;;;;;;5119049;27;27815;-96
2022/11/28 02:47:04;;;;;;;;;0.00;0.00;;;;;;;;5119659;27;30306;-96
2022/11/28 02:49:35;;;;;;;;;0.00;0.00;;;;;;;;5122434;27;29348;-96
2022/11/28 02:52:38;;;;;;;;;0.00;0.00;;;;;;;;5132226;27;27839;-96
2022/11/28 02:55:06;;;;;;;;;0.00;0.00;;;;;;;;5061890;28;28003;-96
2022/11/28 02:58:02;;;;;;;;;0.00;0.00;;;;;;;;5076664;28;28357;-96
2022/11/28 03:01:01;;;;;;;;;0.00;0.00;;;;;;;;5076435;28;27836;-97
2022/11/28 03:06:30;;;;;;;;;0.00;0.00;;;;;;;;5446115;22;29070;-96
2022/11/28 03:09:04;;;;;;;;;0.00;0.00;;;;;;;;5100839;27;28509;-96
2022/11/28 03:11:40;;;;;;;;;0.00;0.00;;;;;;;;5099377;28;27764;-96
2022/11/28 03:14:18;;;;;;;;;0.00;0.00;;;;;;;;5100109;28;27750;-96
2022/11/28 03:16:50;;;;;;;;;0.00;0.00;;;;;;;;5116319;28;27925;-96
2022/11/28 03:19:15;;;;;;;;;0.00;0.00;;;;;;;;5094808;28;28553;-96
2022/11/28 03:22:16;;;;;;;;;0.00;0.00;;;;;;;;5111615;28;27688;-96
2022/11/28 03:24:47;;;;;;;;;0.00;0.00;;;;;;;;5052194;28;27895;-96
2022/11/28 03:27:13;;;;;;;;;0.00;0.00;;;;;;;;5038244;28;27930;-96
2022/11/28 03:29:41;;;;;;;;;0.00;0.00;;;;;;;;5054100;28;30298;-96
2022/11/28 03:32:08;;;;;;;;;0.00;0.00;;;;;;;;5051893;28;27796;-96
2022/11/28 03:34:37;;;;;;;;;0.00;0.00;;;;;;;;5036764;28;27879;-96
2022/11/28 03:37:06;;;;;;;;;0.00;0.00;;;;;;;;5055641;28;27929;-96
2022/11/28 03:39:34;;;;;;;;;0.00;0.00;;;;;;;;5056279;28;28738;-96
2022/11/28 03:42:14;;;;;;;;;0.00;0.00;;;;;;;;5039824;28;27741;-96
2022/11/28 03:44:44;;;;;;;;;0.00;0.00;;;;;;;;5039057;28;27826;-96
2022/11/28 03:47:10;;;;;;;;;0.00;0.00;;;;;;;;5038540;28;27934;-96
2022/11/28 03:49:39;;;;;;;;;0.00;0.00;;;;;;;;5037497;28;28154;-96
2022/11/28 03:52:06;;;;;;;;;0.00;0.00;;;;;;;;5040623;28;27742;-96
2022/11/28 03:55:06;;;;;;;;;0.00;0.00;;;;;;;;5040168;28;27695;-94
2022/11/28 03:57:41;;;;;;;;;0.00;0.00;;;;;;;;5015901;28;27960;-96
2022/11/28 04:00:10;;;;;;;;;0.00;0.00;;;;;;;;5017123;28;29259;-96
2022/11/28 04:02:37;;;;;;;;;0.00;0.00;;;;;;;;5016585;28;27950;-96
2022/11/28 04:05:21;;;;;;;;;0.00;0.00;;;;;;;;5018083;28;27816;-96
2022/11/28 04:07:57;;;;;;;;;0.00;0.00;;;;;;;;5032687;28;28016;-96
2022/11/28 04:10:41;;;;;;;;;0.00;0.00;;;;;;;;5032636;28;30018;-96
2022/11/28 04:13:12;;;;;;;;;0.00;0.00;;;;;;;;5034302;28;27817;-96
2022/11/28 04:15:44;;;;;;;;;0.00;0.00;;;;;;;;5036654;28;28167;-95
2022/11/28 04:18:15;;;;;;;;;0.00;0.00;;;;;;;;5024079;28;27936;-96
2022/11/28 04:20:44;;;;;;;;;0.00;0.00;;;;;;;;5024363;28;28624;-96
2022/11/28 04:23:12;;;;;;;;;0.00;0.00;;;;;;;;5023687;28;29096;-96
2022/11/28 04:25:39;;;;;;;;;0.00;0.00;;;;;;;;5023004;28;27861;-96
2022/11/28 04:28:07;;;;;;;;;0.00;0.00;;;;;;;;5023970;28;27901;-96
2022/11/28 04:30:33;;;;;;;;;0.00;0.00;;;;;;;;5033805;28;29900;-96
2022/11/28 04:33:01;;;;;;;;;7.00;7.00;;;;;;;;5104278;28;27862;-96
2022/11/28 04:35:31;;;;;;;;;0.00;0.00;;;;;;;;5122490;27;27820;-96
2022/11/28 04:37:57;;;;;;;;;0.00;0.00;;;;;;;;5102295;28;27907;-96
2022/11/28 04:40:24;;;;;;;;;0.00;0.00;;;;;;;;5098623;28;29493;-96
2022/11/28 04:43:16;;;;;;;;;0.00;0.00;;;;;;;;5099532;28;28647;-96
2022/11/28 04:45:53;;;;;;;;;0.00;0.00;;;;;;;;5098826;28;28287;-96
2022/11/28 04:48:19;;;;;;;;;0.00;0.00;;;;;;;;5097341;28;27975;-94
2022/11/28 04:50:49;;;;;;;;;0.00;0.00;;;;;;;;5117631;28;29881;-96
2022/11/28 04:53:17;;;;;;;;;0.00;0.00;;;;;;;;5096483;28;27878;-96
2022/11/28 04:55:50;;;;;;;;;0.00;0.00;;;;;;;;5098639;28;27780;-96
2022/11/28 04:58:34;;;;;;;;;0.00;0.00;;;;;;;;5100181;28;27918;-96
2022/11/28 05:01:00;;;;;;;;;0.00;0.00;;;;;;;;5102143;28;28608;-95
2022/11/28 05:03:27;;;;;;;;;0.00;0.00;;;;;;;;5099864;28;29283;-96
2022/11/28 05:05:52;;;;;;;;;0.00;0.00;;;;;;;;5097520;28;27883;-96
2022/11/28 05:08:18;;;;;;;;;0.00;0.00;;;;;;;;5095372;28;28252;-96
2022/11/28 05:10:45;;;;;;;;;0.00;0.00;;;;;;;;5117654;28;28594;-96
2022/11/28 05:13:14;;;;;;;;;0.00;0.00;;;;;;;;5117967;28;27831;-96
2022/11/28 05:16:02;;;;;;;;;0.00;0.00;;;;;;;;5102738;28;27849;-96
2022/11/28 05:18:39;;;;;;;;;0.00;0.00;;;;;;;;5116609;28;27878;-96
2022/11/28 05:21:18;;;;;;;;;0.00;0.00;;;;;;;;5100368;28;29823;-96
2022/11/28 05:23:46;;;;;;;;;0.00;0.00;;;;;;;;5109729;28;27851;-96
2022/11/28 05:26:24;;;;;;;;;0.00;0.00;;;;;;;;5103247;28;27776;-96
2022/11/28 05:29:05;;;;;;;;;0.00;0.00;;;;;;;;5120702;28;27993;-96
2022/11/28 05:31:31;;;;;;;;;0.00;0.00;;;;;;;;5100382;28;29896;-96
2022/11/28 05:34:07;;;;;;;;;0.00;0.00;;;;;;;;5101852;28;27873;-96
2022/11/28 05:41:36;;;;;;;;;0.00;0.00;;;;;;;;5090870;28;28246;-96
2022/11/28 05:44:01;;;;;;;;;0.00;0.00;;;;;;;;5077229;28;28824;-96
2022/11/28 05:46:28;;;;;;;;;0.00;0.00;;;;;;;;5094672;28;27809;-96
2022/11/28 05:48:53;;;;;;;;;0.00;0.00;;;;;;;;5079665;28;27918;-96
2022/11/28 05:51:18;;;;;;;;;0.00;0.00;;;;;;;;5077421;28;28185;-96
2022/11/28 05:53:44;;;;;;;;;0.00;0.00;;;;;;;;5076417;28;28362;-96
2022/11/28 06:01:24;;;;;;;;;0.00;0.00;;;;;;;;5907826;22;28404;-96
2022/11/28 06:03:51;;;;;;;;;0.00;0.00;;;;;;;;5119700;27;27835;-96
2022/11/28 06:06:20;;;;;;;;;0.00;0.00;;;;;;;;5121158;27;27947;-96
2022/11/28 06:08:46;;;;;;;;;0.00;0.00;;;;;;;;5118643;27;27985;-96
2022/11/28 06:11:13;;;;;;;;;0.00;0.00;;;;;;;;5119336;27;29531;-96
2022/11/28 06:13:39;;;;;;;;;0.00;0.00;;;;;;;;5114529;27;27903;-96
2022/11/28 06:16:12;;;;;;;;;0.00;0.00;;;;;;;;5108245;27;27837;-96
2022/11/28 06:18:38;;;;;;;;;0.00;0.00;;;;;;;;5106618;27;27917;-96
2022/11/28 06:21:04;;;;;;;;;0.00;0.00;;;;;;;;5112297;27;30960;-96
2022/11/28 06:23:29;;;;;;;;;0.00;0.00;;;;;;;;5115917;27;28788;-96
2022/11/28 06:25:55;;;;;;;;;0.00;0.00;;;;;;;;5127270;27;27843;-96
2022/11/28 06:28:20;;;;;;;;;0.00;0.00;;;;;;;;5117806;27;27980;-96
2022/11/28 06:30:46;;;;;;;;;0.00;0.00;;;;;;;;5129599;27;28594;-96
2022/11/28 06:33:12;;;;;;;;;0.00;0.00;;;;;;;;5093185;28;28591;-96
2022/11/28 06:35:37;;;;;;;;;0.00;0.00;;;;;;;;5113946;27;27956;-96
2022/11/28 06:38:04;;;;;;;;;0.00;0.00;;;;;;;;5126811;27;27851;-96
2022/11/28 06:43:05;;;;;;;;;0.00;0.00;;;;;;;;5685926;22;28269;-96
2022/11/28 06:45:31;;;;;;;;;0.00;0.00;;;;;;;;5073701;28;28457;-96
2022/11/28 06:48:03;;;;;;;;;0.00;0.00;;;;;;;;5081658;22;28501;-96
2022/11/28 07:21:29;;;;;;;;;0.00;0.00;;;;;;;;6195880;22;29053;-96
2022/11/28 07:23:54;;;;;;;;;0.00;0.00;;;;;;;;5118108;27;28367;-95
2022/11/28 07:26:20;;;;;;;;;0.00;0.00;;;;;;;;5115594;27;28445;-95
2022/11/28 07:28:46;;;;;;;;;0.00;0.00;;;;;;;;5120062;27;28551;-96
2022/11/28 07:31:16;;;;;;;;;0.00;0.00;;;;;;;;5107024;27;28441;-95
2022/11/28 07:33:42;;;;;;;;;0.00;0.00;;;;;;;;5117420;27;28593;-94
2022/11/28 07:36:10;;;;;;;;;0.00;0.00;;;;;;;;5099697;27;28485;-94
2022/11/28 07:38:35;;;;;;;;;0.00;0.00;;;;;;;;5102939;27;28649;-94
2022/11/28 07:41:01;;;;;;;;;0.00;0.00;;;;;;;;5099007;27;30073;-95
2022/11/28 07:43:27;;;;;;;;;0.00;0.00;;;;;;;;5099024;27;29999;-94
2022/11/28 07:45:52;;;;;;;;;0.00;0.00;;;;;;;;5115139;27;28483;-95
2022/11/28 07:48:17;;;;;;;;;0.00;0.00;;;;;;;;5099612;27;28402;-96
2022/11/28 07:50:42;;;;;;;;;0.00;0.00;;;;;;;;5097278;27;31358;-95
2022/11/28 07:53:08;;;;;;;;;0.00;0.00;;;;;;;;5097728;27;28777;-95
2022/11/28 07:55:34;;;;;;;;;0.00;0.00;;;;;;;;5098210;27;28355;-96
2022/11/28 07:57:59;;;;;;;;;0.00;0.00;;;;;;;;5097488;27;28573;-95
2022/11/28 08:00:24;;;;;;;;;0.00;0.00;;;;;;;;5097019;27;29622;-96
2022/11/28 08:02:49;;;;;;;;;0.00;0.00;;;;;;;;5096063;27;29326;-92
2022/11/28 08:05:14;;;;;;;;;0.00;0.00;;;;;;;;5099134;27;28358;-94
2022/11/28 08:07:39;;;;;;;;;0.00;0.00;;;;;;;;5089333;27;28354;-96
2022/11/28 08:10:05;;;;;;;;;0.00;0.00;;;;;;;;5102091;27;31362;-96
2022/11/28 08:12:30;;;;;;;;;0.00;0.00;;;;;;;;5096702;27;28737;-95
2022/11/28 08:14:56;;;;;;;;;15.00;15.00;;;;;;;;5097270;27;28261;-96
2022/11/28 08:17:21;;;;;;;;;0.00;0.00;;;;;;;;5109558;27;28527;-90
2022/11/28 08:19:46;;;;;;;;;0.00;0.00;;;;;;;;5113794;27;29279;-95
2022/11/28 08:22:11;;;;;;;;;0.00;0.00;;;;;;;;5091976;27;28713;-96
2022/11/28 08:24:37;;;;;;;;;0.00;0.00;;;;;;;;5114043;27;28717;-93
2022/11/28 08:27:03;;;;;;;;;0.00;0.00;;;;;;;;5100519;27;28520;-94
2022/11/28 08:29:28;;;;;;;;;0.00;0.00;;;;;;;;5096108;27;30217;-94
2022/11/28 08:31:55;;;;;;;;;0.00;0.00;;;;;;;;5118018;27;27975;-96
2022/11/28 08:34:20;;;;;;;;;0.00;0.00;;;;;;;;5100585;27;28409;-96
2022/11/28 08:36:47;;;;;;;;;0.00;0.00;;;;;;;;5107542;27;28384;-95
2022/11/28 08:39:13;;;;;;;;;0.00;0.00;;;;;;;;5104679;27;29953;-93
2022/11/28 08:41:38;;;;;;;;;0.00;0.00;;;;;;;;5106407;27;28606;-94
2022/11/28 08:44:04;;;;;;;;;0.00;0.00;;;;;;;;5107458;27;27737;-96
2022/11/28 08:46:30;;;;;;;;;0.00;0.00;;;;;;;;5128902;22;27902;-92
2022/11/28 08:48:55;;;;;;;;;0.00;0.00;;;;;;;;5135228;22;30186;-96
2022/11/28 08:51:22;;;;;;;;;0.00;0.00;;;;;;;;5104057;27;28391;-96
2022/11/28 08:53:48;;;;;;;;;0.00;0.00;;;;;;;;5108391;27;28449;-96
2022/11/28 08:56:13;;;;;;;;;0.00;0.00;;;;;;;;5258738;22;27890;-96
2022/11/28 08:58:38;;;;;;;;;0.00;0.00;;;;;;;;5057014;28;29638;-95
2022/11/28 09:01:12;;;;;;;;;0.00;0.00;;;;;;;;5074944;28;28449;-96
2022/11/28 09:03:37;;;;;;;;;0.00;0.00;;;;;;;;5080912;28;28381;-95
2022/11/28 09:06:02;;;;;;;;;0.00;0.00;;;;;;;;5094142;27;27916;-96
2022/11/28 09:08:28;;;;;;;;;0.00;0.00;;;;;;;;5061333;28;28542;-96
2022/11/28 09:10:53;;;;;;;;;0.00;0.00;;;;;;;;5079631;28;28238;-96
2022/11/28 09:13:18;;;;;;;;;0.00;0.00;;;;;;;;5056307;28;27884;-95
2022/11/28 09:15:45;;;;;;;;;0.00;0.00;;;;;;;;5073130;28;28403;-96
2022/11/28 09:18:11;;;;;;;;;0.00;0.00;;;;;;;;5062589;28;30079;-96
2022/11/28 09:20:37;;;;;;;;;0.00;0.00;;;;;;;;5075311;28;28380;-96
2022/11/28 09:23:02;;;;;;;;;0.00;0.00;;;;;;;;5077154;28;28545;-95
2022/11/28 09:25:27;;;;;;;;;0.00;0.00;;;;;;;;5059817;28;28388;-96
2022/11/28 09:27:53;;;;;;;;;0.00;0.00;;;;;;;;5076189;28;28400;-96
2022/11/28 09:30:21;;;;;;;;;0.00;0.00;;;;;;;;5073420;28;28371;-95
2022/11/28 09:32:46;;;;;;;;;0.00;0.00;;;;;;;;5077395;28;27793;-95
2022/11/28 09:35:12;;;;;;;;;0.00;0.00;;;;;;;;5071831;28;28338;-93
2022/11/28 09:37:37;;;;;;;;;0.00;0.00;;;;;;;;5073961;28;28306;-96
2022/11/28 09:40:02;;;;;;;;;0.00;0.00;;;;;;;;5075477;28;28426;-96
2022/11/28 09:42:31;;;;;;;;;0.00;0.00;;;;;;;;5056028;28;28425;-96
2022/11/28 09:44:59;;;;;;;;;0.00;0.00;;;;;;;;5079666;28;28466;-96
2022/11/28 09:47:29;;;;;;;;;4.00;4.00;;;;;;;;5053984;28;31215;-96
2022/11/28 09:49:57;;;;;;;;;0.00;0.00;;;;;;;;5079818;28;28329;-96
2022/11/28 09:52:33;;;;;;;;;0.00;0.00;;;;;;;;5057593;28;27855;-96
2022/11/28 09:55:06;;;;;;;;;0.00;0.00;;;;;;;;5057637;28;28457;-95
2022/11/28 09:57:34;;;;;;;;;0.00;0.00;;;;;;;;5070145;28;28709;-96
2022/11/28 10:00:00;;;;;;;;;0.00;0.00;;;;;;;;5074536;28;27948;-96
2022/11/28 10:02:28;;;;;;;;;0.00;0.00;;;;;;;;5073737;28;28756;-96
2022/11/28 10:05:04;;;;;;;;;0.00;0.00;;;;;;;;5074139;28;28403;-96
2022/11/28 10:07:29;;;;;;;;;0.00;0.00;;;;;;;;5075231;28;28493;-96
2022/11/28 10:09:54;;;;;;;;;0.00;0.00;;;;;;;;5078020;28;28316;-96
2022/11/28 10:12:31;;;;;;;;;0.00;0.00;;;;;;;;5079948;28;28521;-96
2022/11/28 10:14:56;;;;;;;;;0.00;0.00;;;;;;;;5076435;28;28663;-96
2022/11/28 10:17:40;;;;;;;;;0.00;0.00;;;;;;;;5076870;28;28465;-96
2022/11/28 10:20:09;;;;;;;;;0.00;0.00;;;;;;;;5058484;28;28443;-96
2022/11/28 10:22:41;;;;;;;;;0.00;0.00;;;;;;;;5076126;28;27955;-96
2022/11/28 10:25:12;;;;;;;;;0.00;0.00;;;;;;;;5074471;28;27868;-96
2022/11/28 10:27:38;;;;;;;;;0.00;0.00;;;;;;;;5077373;28;28560;-94
2022/11/28 10:30:23;;;;;;;;;0.00;0.00;;;;;;;;5081548;28;28460;-96
2022/11/28 10:33:01;;;;;;;;;0.00;0.00;;;;;;;;5051659;28;27840;-96
2022/11/28 10:35:29;;;;;;;;;0.00;0.00;;;;;;;;5074743;28;27871;-96
2022/11/28 10:37:54;;;;;;;;;0.00;0.00;;;;;;;;5073305;28;28490;-96
2022/11/28 10:40:23;;;;;;;;;0.00;0.00;;;;;;;;5055088;28;28403;-96
2022/11/28 10:42:48;;;;;;;;;0.00;0.00;;;;;;;;5055442;28;28494;-96
2022/11/28 10:45:19;;;;;;;;;0.00;0.00;;;;;;;;5073871;28;28284;-96
2022/11/28 10:47:59;;;;;;;;;0.00;0.00;;;;;;;;5072290;28;28847;-96
2022/11/28 10:50:43;;;;;;;;;0.00;0.00;;;;;;;;5073325;28;28336;-96
2022/11/28 10:53:26;;;;;;;;;0.00;0.00;;;;;;;;5055921;28;27901;-96
2022/11/28 10:55:57;;;;;;;;;0.00;0.00;;;;;;;;5072178;28;28662;-96
2022/11/28 10:58:26;;;;;;;;;0.00;0.00;;;;;;;;5051736;28;30309;-94
2022/11/28 11:00:55;;;;;;;;;0.00;0.00;;;;;;;;5063948;28;28828;-96
2022/11/28 11:03:24;;;;;;;;;0.00;0.00;;;;;;;;5079722;28;28425;-93
2022/11/28 11:05:49;;;;;;;;;0.00;0.00;;;;;;;;5064257;28;27836;-95
2022/11/28 11:08:15;;;;;;;;;6.00;6.00;;;;;;;;5057249;28;29747;-91
2022/11/28 11:10:59;;;;;;;;;0.00;0.00;;;;;;;;5072321;28;28751;-93
2022/11/28 11:13:26;;;;;;;;;0.00;0.00;;;;;;;;5074448;28;28523;-96
2022/11/28 11:15:59;;;;;;;;;0.00;0.00;;;;;;;;5063209;28;27963;-95
2022/11/28 11:18:26;;;;;;;;;0.00;0.00;;;;;;;;5070367;28;28599;-91
2022/11/28 11:21:04;;;;;;;;;0.00;0.00;;;;;;;;5071770;28;28923;-90
2022/11/28 11:23:30;;;;;;;;;0.00;0.00;;;;;;;;5074157;28;28308;-92
2022/11/28 11:25:57;;;;;;;;;0.00;0.00;;;;;;;;5075563;28;28538;-94
2022/11/28 11:28:35;;;;;;;;;0.00;0.00;;;;;;;;5052758;28;30530;-89
2022/11/28 11:31:01;;;;;;;;;0.00;0.00;;;;;;;;5051148;28;29131;-93
2022/11/28 11:33:31;;;;;;;;;0.00;0.00;;;;;;;;5077761;28;28383;-92
2022/11/28 11:35:56;;;;;;;;;0.00;0.00;;;;;;;;5067721;28;29227;-96
2022/11/28 11:38:22;;;;;;;;;0.00;0.00;;;;;;;;5051632;28;29883;-91
2022/11/28 11:40:50;;;;;;;;;0.00;0.00;;;;;;;;5051621;28;36394;-93
2022/11/28 11:43:34;;;;;;;;;0.00;0.00;;;;;;;;5053675;28;28399;-93
2022/11/28 11:46:08;;;;;;;;;0.00;0.00;;;;;;;;5053885;28;28423;-94
2022/11/28 11:48:37;;;;;;;;;0.00;0.00;;;;;;;;5069964;28;30327;-92
2022/11/28 11:51:03;;;;;;;;;0.00;0.00;;;;;;;;5052929;28;28503;-89
2022/11/28 11:53:28;;;;;;;;;4.67;4.67;;;;;;;;5052264;28;28569;-92
2022/11/28 11:55:54;;;;;;;;;0.00;0.00;;;;;;;;5068454;28;29773;-90
2022/11/28 11:58:25;;;;;;;;;0.00;0.00;;;;;;;;5051300;28;30501;-90
2022/11/28 12:00:52;;;;;;;;;0.00;0.00;;;;;;;;5070057;28;28550;-88
2022/11/28 12:03:35;;;;;;;;;0.00;0.00;;;;;;;;5070908;28;27956;-93
2022/11/28 12:06:05;;;;;;;;;0.00;0.00;;;;;;;;5070786;28;28605;-94
2022/11/28 12:08:39;;;;;;;;;0.00;0.00;;;;;;;;5052531;28;30295;-93
2022/11/28 12:11:04;;;;;;;;;0.00;0.00;;;;;;;;5054469;28;28998;-95
2022/11/28 12:13:31;;;;;;;;;0.00;0.00;;;;;;;;5054350;28;28525;-93
2022/11/28 12:16:12;;;;;;;;;0.00;0.00;;;;;;;;5056011;28;28564;-93
2022/11/28 12:19:16;;;;;;;;;0.00;0.00;;;;;;;;5053006;28;30413;-92
2022/11/28 12:21:44;;;;;;;;;0.00;0.00;;;;;;;;4989974;28;28958;-91
2022/11/28 12:24:14;;;;;;;;;0.00;0.00;;;;;;;;4992868;28;27851;-95
2022/11/28 12:26:46;;;;;;;;;0.00;0.00;;;;;;;;4989997;28;28512;-90
2022/11/28 12:29:13;;;;;;;;;0.00;0.00;;;;;;;;4973174;28;29991;-94
2022/11/28 12:31:41;;;;;;;;;0.00;0.00;;;;;;;;4986928;28;28669;-91
2022/11/28 12:34:12;;;;;;;;;0.00;0.00;;;;;;;;4981579;28;28472;-90
2022/11/28 12:36:52;;;;;;;;;0.00;0.00;;;;;;;;4988611;28;28619;-95
2022/11/28 12:39:21;;;;;;;;;0.00;0.00;;;;;;;;4978747;28;28540;-93
2022/11/28 12:42:00;;;;;;;;;0.00;0.00;;;;;;;;4975651;28;30551;-90
2022/11/28 12:44:47;;;;;;;;;0.00;0.00;;;;;;;;4992122;28;28657;-94
2022/11/28 12:47:21;;;;;;;;;0.00;0.00;;;;;;;;4999905;28;28537;-94
2022/11/28 12:49:53;;;;;;;;;0.00;0.00;;;;;;;;4981325;28;29857;-91
2022/11/28 12:52:40;;;;;;;;;0.00;0.00;;;;;;;;5012563;28;28959;-95
2022/11/28 12:55:23;;;;;;;;;0.00;0.00;;;;;;;;5051779;28;28415;-95
2022/11/28 12:57:56;;;;;;;;;0.00;0.00;;;;;;;;5053914;28;28597;-89
2022/11/28 13:00:26;;;;;;;;;0.00;0.00;;;;;;;;5075159;28;29183;-91
2022/11/28 13:03:06;;;;;;;;;0.00;0.00;;;;;;;;5054446;28;28879;-90
2022/11/28 13:05:34;;;;;;;;;0.00;0.00;;;;;;;;5072734;28;28502;-91
2022/11/28 13:08:16;;;;;;;;;0.00;0.00;;;;;;;;5068656;28;29382;-91
2022/11/28 13:11:01;;;;;;;;;0.00;0.00;;;;;;;;5056270;28;29924;-91
2022/11/28 13:13:34;;;;;;;;;0.00;0.00;;;;;;;;5053312;28;31759;-93
2022/11/28 13:16:10;;;;;;;;;0.00;0.00;;;;;;;;5069518;28;39176;-92
2022/11/28 13:18:40;;;;;;;;;0.00;0.00;;;;;;;;5067456;28;28941;-92
2022/11/28 13:21:08;;;;;;;;;0.00;0.00;;;;;;;;5052849;28;33424;-93
2022/11/28 13:23:39;;;;;;;;;0.00;0.00;;;;;;;;5073147;28;28473;-92
2022/11/28 13:26:08;;;;;;;;;0.00;0.00;;;;;;;;5054219;28;28494;-91
2022/11/28 13:28:41;;;;;;;;;0.00;0.00;;;;;;;;5073407;28;28457;-94
2022/11/28 13:31:11;;;;;;;;;0.00;0.00;;;;;;;;5054290;28;31011;-92
2022/11/28 13:33:36;;;;;;;;;0.00;0.00;;;;;;;;5072784;28;29308;-93
2022/11/28 13:36:02;;;;;;;;;0.00;0.00;;;;;;;;5054950;28;27992;-93
2022/11/28 13:38:47;;;;;;;;;0.00;0.00;;;;;;;;5072226;28;28909;-92
2022/11/28 13:41:20;;;;;;;;;0.00;0.00;;;;;;;;5058179;28;31316;-92
2022/11/28 13:43:45;;;;;;;;;0.00;0.00;;;;;;;;5054953;28;28779;-92
2022/11/28 13:46:11;;;;;;;;;0.00;0.00;;;;;;;;5053623;28;28591;-93
2022/11/28 13:48:36;;;;;;;;;0.00;0.00;;;;;;;;5053561;28;28399;-91
2022/11/28 13:51:14;;;;;;;;;0.00;0.00;;;;;;;;5070170;28;28439;-92
2022/11/28 13:53:43;;;;;;;;;0.00;0.00;;;;;;;;5053975;28;28705;-91
2022/11/28 13:56:19;;;;;;;;;0.00;0.00;;;;;;;;5069825;28;28485;-91
2022/11/28 13:58:49;;;;;;;;;0.00;0.00;;;;;;;;5063974;28;28552;-91
2022/11/28 14:01:16;;;;;;;;;0.00;0.00;;;;;;;;5051403;28;30089;-91
2022/11/28 14:03:50;;;;;;;;;0.00;0.00;;;;;;;;5049535;28;29571;-91
2022/11/28 14:06:18;;;;;;;;;0.00;0.00;;;;;;;;5069461;28;28693;-90
2022/11/28 14:08:45;;;;;;;;;0.00;0.00;;;;;;;;5064209;28;28506;-90
2022/11/28 14:11:33;;;;;;;;;0.00;0.00;;;;;;;;5055507;28;30090;-92
2022/11/28 14:14:21;;;;;;;;;0.00;0.00;;;;;;;;5053694;28;30059;-87
2022/11/28 14:17:01;;;;;;;;;0.00;0.00;;;;;;;;5052188;28;28467;-92
2022/11/28 14:19:29;;;;;;;;;0.00;0.00;;;;;;;;5070976;28;28533;-92
2022/11/28 14:21:55;;;;;;;;;0.00;0.00;;;;;;;;5072022;28;28557;-91
2022/11/28 14:24:40;;;;;;;;;0.00;0.00;;;;;;;;5056367;28;29389;-91
2022/11/28 14:27:06;;;;;;;;;0.00;0.00;;;;;;;;4995184;28;28467;-91
2022/11/28 14:29:39;;;;;;;;;0.00;0.00;;;;;;;;5007516;28;28602;-92
2022/11/28 14:32:05;;;;;;;;;0.00;0.00;;;;;;;;4991052;28;30053;-90
2022/11/28 14:34:36;;;;;;;;;0.00;0.00;;;;;;;;5006722;28;28574;-90
2022/11/28 14:37:26;;;;;;;;;0.00;0.00;;;;;;;;4997581;28;28351;-91
2022/11/28 14:39:52;;;;;;;;;0.00;0.00;;;;;;;;5002195;28;29850;-90
2022/11/28 14:42:35;;;;;;;;;0.00;0.00;;;;;;;;4990664;28;29692;-90
2022/11/28 14:45:01;;;;;;;;;0.00;0.00;;;;;;;;5007932;28;28356;-92
2022/11/28 14:47:30;;;;;;;;;0.00;0.00;;;;;;;;5006443;28;28939;-91
2022/11/28 14:50:04;;;;;;;;;0.00;0.00;;;;;;;;5006880;28;29005;-92
2022/11/28 14:52:39;;;;;;;;;0.00;0.00;;;;;;;;5006329;28;29436;-92
2022/11/28 14:55:05;;;;;;;;;0.00;0.00;;;;;;;;5006337;28;28550;-89
2022/11/28 14:57:31;;;;;;;;;0.00;0.00;;;;;;;;5005929;28;28605;-89
2022/11/28 15:00:17;;;;;;;;;0.00;0.00;;;;;;;;4985369;28;28664;-89
2022/11/28 15:02:47;;;;;;;;;0.00;0.00;;;;;;;;5006307;28;29473;-90
2022/11/28 15:05:12;;;;;;;;;0.00;0.00;;;;;;;;5041518;28;28885;-90
2022/11/28 15:07:40;;;;;;;;;0.00;0.00;;;;;;;;5068046;28;28480;-91
2022/11/28 15:10:08;;;;;;;;;0.00;0.00;;;;;;;;5055461;28;28384;-90
2022/11/28 15:12:36;;;;;;;;;0.00;0.00;;;;;;;;5073515;28;28785;-89
2022/11/28 15:15:03;;;;;;;;;0.00;0.00;;;;;;;;5075292;28;28384;-90
2022/11/28 15:17:31;;;;;;;;;0.00;0.00;;;;;;;;5069642;28;35754;-91
2022/11/28 15:19:57;;;;;;;;;0.00;0.00;;;;;;;;5060843;28;28635;-90
2022/11/28 15:22:32;;;;;;;;;0.00;0.00;;;;;;;;5066469;28;30457;-89
2022/11/28 15:24:58;;;;;;;;;0.00;0.00;;;;;;;;5050273;28;38346;-89
2022/11/28 15:27:24;;;;;;;;;0.00;0.00;;;;;;;;5073568;28;30433;-88
2022/11/28 15:29:53;;;;;;;;;0.00;0.00;;;;;;;;5064287;28;40144;-90
2022/11/28 15:32:19;;;;;;;;;0.00;0.00;;;;;;;;5052418;28;35894;-89
2022/11/28 15:34:50;;;;;;;;;0.00;0.00;;;;;;;;5068726;28;29626;-94
2022/11/28 15:37:16;;;;;;;;;0.00;0.00;;;;;;;;5049466;28;30340;-86
2022/11/28 15:39:43;;;;;;;;;0.00;0.00;;;;;;;;5059219;28;29105;-89
2022/11/28 15:42:23;;;;;;;;;0.00;0.00;;;;;;;;5042466;28;30776;-88
2022/11/28 15:44:58;;;;;;;;;0.00;0.00;;;;;;;;5062471;28;29820;-90
2022/11/28 15:47:25;;;;;;;;;0.00;0.00;;;;;;;;5062461;28;38914;-89